Pipestone, MN

12:03 PM CST on February 24, 2017 (GMT -0600)
Pipestone Municipal

Weather History for KPQN - November, 2012

Change the Weather History Date:

Sunday, November 11, 2012

  Actual Average Record
Temperature  
Mean Temperature 24 °F -  
Max Temperature 32 °F 42 °F 66 °F (2005)
Min Temperature 17 °F 24 °F 5 °F (1999)
Degree Days  
Heating Degree Days 40    
Moisture  
Dew Point 15 °F    
Average Humidity 75    
Maximum Humidity 100    
Minimum Humidity 63    
Precipitation  
Precipitation 0.00 in - - ()
Sea Level Pressure  
Sea Level Pressure 29.85 in    
Wind  
Wind Speed 19 mph (NW)    
Max Wind Speed 25 mph    
Max Gust Speed 32 mph    
Visibility 10 miles    
Events Snow    
Averages and records for this station are not official NWS values.
T = Trace of Precipitation, MM = Missing Value Source: NWS Daily Summary

Daily Weather History Graph

Daily Weather History Graph

Search for Another Location

Airport or City:

Trip Planner

Search our weather history database for the weather conditions in past years. The results will help you decide how hot, cold, wet, or windy it might be!

Date:

Astronomy

Nov. 11, 2012 Rise Set
Actual Time 7:15 AM CST 5:02 PM CST
Civil Twilight 6:44 AM CST 5:33 PM CST
Nautical Twilight 6:09 AM CST 6:08 PM CST
Astronomical Twilight 5:36 AM CST 6:41 PM CST
Moon 4:26 AM CST (11/11) 3:30 PM CST (11/11)
Length of Visible Light 10h 48m
Length of Day
9h 46m
Waning Crescent, 7% of the Moon is Illuminated
Nov 11
Waning Crescent
Nov 13
New
Nov 20
First Quarter
Nov 28
Full
Dec 6
Last Quarter

Hourly Weather History & Observations

Time (CST) Temp. Windchill Dew Point Humidity Pressure Visibility Wind Dir Wind Speed Gust Speed Precip Events Conditions
12:33 AM 32.0 °F 20.5 °F 30.2 °F 93% 29.65 in 3.0 mi NW 18.4 mph 28.8 mph N/A   Overcast
12:53 AM 30.2 °F 17.8 °F 30.2 °F 100% 29.66 in 7.0 mi NW 19.6 mph 26.5 mph N/A   Overcast
1:13 AM 30.2 °F 17.8 °F 28.4 °F 93% 29.66 in 10.0 mi WNW 19.6 mph 29.9 mph N/A   Overcast
1:33 AM 30.2 °F 18.1 °F 28.4 °F 93% 29.66 in 10.0 mi NW 18.4 mph 25.3 mph N/A   Overcast
1:54 AM 28.4 °F 16.6 °F 26.6 °F 93% 29.67 in 10.0 mi NW 16.1 mph 28.8 mph N/A   Overcast
2:13 AM 28.4 °F 15.4 °F 26.6 °F 93% 29.67 in 10.0 mi NW 19.6 mph 28.8 mph N/A   Overcast
2:33 AM 28.4 °F 16.6 °F 26.6 °F 93% 29.69 in 10.0 mi NW 16.1 mph 23.0 mph N/A   Overcast
2:54 AM 28.4 °F 15.4 °F 24.8 °F 86% 29.69 in 10.0 mi NW 19.6 mph 24.2 mph N/A   Overcast
3:13 AM 28.4 °F 17.0 °F 24.8 °F 86% 29.71 in 10.0 mi NW 15.0 mph 24.2 mph N/A   Overcast
3:33 AM 26.6 °F 13.8 °F 23.0 °F 86% 29.74 in 10.0 mi NW 17.3 mph 27.6 mph N/A   Overcast
3:53 AM 26.6 °F 13.4 °F 21.2 °F 80% 29.75 in 10.0 mi NW 18.4 mph 26.5 mph N/A   Overcast
4:13 AM 24.8 °F 10.3 °F 21.2 °F 86% 29.74 in 10.0 mi NW 20.7 mph 26.5 mph N/A   Overcast
4:33 AM 24.8 °F 10.0 °F 21.2 °F 86% 29.75 in 10.0 mi NW 21.9 mph 29.9 mph N/A   Overcast
4:54 AM 24.8 °F 10.7 °F 21.2 °F 86% 29.76 in 10.0 mi NW 19.6 mph 32.2 mph N/A   Overcast
5:13 AM 24.8 °F 10.3 °F 21.2 °F 86% 29.76 in 10.0 mi NW 20.7 mph 27.6 mph N/A   Overcast
5:33 AM 23.0 °F 7.6 °F 19.4 °F 86% 29.77 in 10.0 mi NW 21.9 mph 29.9 mph N/A   Overcast
5:53 AM 23.0 °F 8.0 °F 19.4 °F 86% 29.79 in 10.0 mi NW 20.7 mph 26.5 mph N/A   Overcast
6:13 AM 23.0 °F 8.7 °F 17.6 °F 80% 29.79 in 10.0 mi NW 18.4 mph 25.3 mph N/A   Overcast
6:33 AM 21.2 °F 6.8 °F 17.6 °F 86% 29.79 in 10.0 mi NW 17.3 mph 24.2 mph N/A   Overcast
6:53 AM 21.2 °F 6.0 °F 17.6 °F 86% 29.79 in 10.0 mi NW 19.6 mph 27.6 mph N/A   Overcast
7:33 AM 21.2 °F 5.2 °F 15.8 °F 80% 29.83 in 10.0 mi NW 21.9 mph 26.5 mph N/A   Overcast
8:13 AM 21.2 °F 6.4 °F 15.8 °F 80% 29.83 in 10.0 mi NW 18.4 mph 24.2 mph N/A   Overcast
8:33 AM 19.4 °F 4.5 °F 14.0 °F 80% 29.84 in 10.0 mi NW 17.3 mph 21.9 mph N/A   Overcast
8:53 AM 19.4 °F 4.5 °F 14.0 °F 80% 29.85 in 10.0 mi NW 17.3 mph 21.9 mph N/A   Overcast
9:13 AM 19.4 °F 4.1 °F 14.0 °F 80% 29.84 in 10.0 mi NW 18.4 mph 23.0 mph N/A   Mostly Cloudy
9:53 AM 19.4 °F 6.0 °F 12.2 °F 74% 29.87 in 10.0 mi NW 13.8 mph 17.3 mph N/A   Scattered Clouds
10:13 AM 19.4 °F 3.6 °F 12.2 °F 74% 29.86 in 10.0 mi NW 19.6 mph 25.3 mph N/A   Scattered Clouds
10:33 AM 19.4 °F 3.6 °F 12.2 °F 74% 29.88 in 10.0 mi NW 19.6 mph - N/A   Mostly Cloudy
10:53 AM 21.2 °F 6.0 °F 12.2 °F 68% 29.86 in 10.0 mi NW 19.6 mph 26.5 mph N/A   Scattered Clouds
11:13 AM 21.2 °F 7.3 °F 12.2 °F 68% 29.88 in 10.0 mi NW 16.1 mph 24.2 mph N/A   Scattered Clouds
11:33 AM 21.2 °F 8.3 °F 12.2 °F 68% 29.88 in 10.0 mi NW 13.8 mph 23.0 mph N/A   Scattered Clouds
11:53 AM 21.2 °F 7.8 °F 12.2 °F 68% 29.87 in 10.0 mi WNW 15.0 mph 19.6 mph N/A   Mostly Cloudy
12:13 PM 21.2 °F 7.3 °F 12.2 °F 68% 29.87 in 10.0 mi WNW 16.1 mph 24.2 mph N/A   Mostly Cloudy
12:33 PM 21.2 °F 6.0 °F 12.2 °F 68% 29.86 in 10.0 mi NW 19.6 mph 26.5 mph N/A   Scattered Clouds
12:53 PM 21.2 °F 6.0 °F 12.2 °F 68% 29.86 in 10.0 mi NW 19.6 mph 29.9 mph N/A   Mostly Cloudy
1:13 PM 23.0 °F 6.9 °F 12.2 °F 63% 29.85 in 10.0 mi WNW 24.2 mph 32.2 mph N/A   Scattered Clouds
1:33 PM 21.2 °F 5.2 °F 12.2 °F 68% 29.85 in 10.0 mi WNW 21.9 mph 28.8 mph N/A   Scattered Clouds
1:53 PM 23.0 °F 6.9 °F 12.2 °F 63% 29.86 in 10.0 mi WNW 24.2 mph 29.9 mph N/A   Scattered Clouds
2:13 PM 23.0 °F 8.7 °F 12.2 °F 63% 29.86 in 10.0 mi WNW 18.4 mph 26.5 mph N/A   Scattered Clouds
2:33 PM 23.0 °F 7.6 °F 12.2 °F 63% 29.87 in 10.0 mi WNW 21.9 mph 28.8 mph N/A   Mostly Cloudy
2:53 PM 21.2 °F 6.8 °F 12.2 °F 68% 29.87 in 10.0 mi WNW 17.3 mph 26.5 mph N/A   Mostly Cloudy
3:13 PM 21.2 °F 4.9 °F 12.2 °F 68% 29.88 in 10.0 mi WNW 23.0 mph 29.9 mph N/A   Mostly Cloudy
3:33 PM 21.2 °F 6.0 °F 12.2 °F 68% 29.88 in 10.0 mi WNW 19.6 mph 26.5 mph N/A   Scattered Clouds
3:53 PM 21.2 °F 4.2 °F 12.2 °F 68% 29.89 in 10.0 mi WNW 25.3 mph 29.9 mph N/A   Scattered Clouds
4:14 PM 21.2 °F 6.0 °F 12.2 °F 68% 29.90 in 10.0 mi NW 19.6 mph 26.5 mph N/A   Scattered Clouds
4:33 PM 21.2 °F 5.2 °F 10.4 °F 63% 29.90 in 10.0 mi WNW 21.9 mph 31.1 mph N/A   Scattered Clouds
4:53 PM 19.4 °F 2.8 °F 10.4 °F 68% 29.91 in 10.0 mi WNW 21.9 mph 29.9 mph N/A   Clear
5:13 PM 19.4 °F 5.5 °F 10.4 °F 68% 29.92 in 10.0 mi WNW 15.0 mph 26.5 mph N/A   Clear
5:33 PM 19.4 °F 3.2 °F 10.4 °F 68% 29.93 in 10.0 mi WNW 20.7 mph 32.2 mph N/A   Scattered Clouds
5:53 PM 19.4 °F 4.1 °F 10.4 °F 68% 29.95 in 10.0 mi WNW 18.4 mph 29.9 mph N/A   Overcast
6:13 PM 19.4 °F 4.1 °F 10.4 °F 68% 29.95 in 10.0 mi WNW 18.4 mph - N/A   Overcast
6:33 PM 19.4 °F 5.0 °F 10.4 °F 68% 29.95 in 10.0 mi WNW 16.1 mph 21.9 mph N/A   Overcast
6:53 PM 17.6 °F 3.2 °F 10.4 °F 73% 29.96 in 10.0 mi WNW 15.0 mph - N/A   Overcast
7:13 PM 17.6 °F 2.7 °F 10.4 °F 73% 29.96 in 10.0 mi WNW 16.1 mph 23.0 mph N/A   Overcast
7:33 PM 19.4 °F 2.8 °F 10.4 °F 68% 29.96 in 10.0 mi WNW 21.9 mph - N/A   Overcast
7:53 PM 19.4 °F 4.1 °F 10.4 °F 68% 29.96 in 10.0 mi WNW 18.4 mph 25.3 mph N/A   Overcast
8:13 PM 19.4 °F 4.1 °F 12.2 °F 74% 29.96 in 10.0 mi WNW 18.4 mph 21.9 mph N/A Snow Light Snow
8:33 PM 19.4 °F 4.5 °F 12.2 °F 74% 29.96 in 10.0 mi West 17.3 mph 25.3 mph N/A Snow Light Snow
8:53 PM 19.4 °F 4.5 °F 12.2 °F 74% 29.96 in 10.0 mi WNW 17.3 mph 26.5 mph N/A Snow Light Snow
9:13 PM 19.4 °F 3.6 °F 12.2 °F 74% 29.97 in 10.0 mi WNW 19.6 mph 25.3 mph N/A Snow Light Snow
9:33 PM 19.4 °F 2.5 °F 12.2 °F 74% 29.97 in 10.0 mi WNW 23.0 mph 29.9 mph N/A Snow Light Snow
9:53 PM 19.4 °F 5.0 °F 10.4 °F 68% 29.97 in 10.0 mi WNW 16.1 mph 28.8 mph N/A Snow Light Snow
10:13 PM 19.4 °F 3.2 °F 10.4 °F 68% 29.97 in 10.0 mi NW 20.7 mph 27.6 mph N/A Snow Light Snow
10:33 PM 19.4 °F 3.2 °F 10.4 °F 68% 29.97 in 10.0 mi WNW 20.7 mph 29.9 mph N/A   Overcast
10:53 PM 19.4 °F 3.2 °F 10.4 °F 68% 29.97 in 10.0 mi WNW 20.7 mph 28.8 mph N/A Snow Light Snow
11:13 PM 19.4 °F 6.0 °F 10.4 °F 68% 29.97 in 10.0 mi WNW 13.8 mph - N/A   Overcast
11:33 PM 19.4 °F 4.1 °F 12.2 °F 74% 29.97 in 10.0 mi WNW 18.4 mph 24.2 mph N/A Snow Light Snow
11:53 PM 19.4 °F 4.1 °F 12.2 °F 74% 29.98 in 10.0 mi WNW 18.4 mph - N/A Snow Light Snow